Time;durP1;ratioP1;P1;durP2;ratioP2;P2;SDS_P1;SDS_P2;PMS_P1;PMS_P2;Temp;Humidity;BMP_temperature;BMP_pressure;BME280_temperature;BME280_humidity;BME280_pressure;Samples;Min_cycle;Max_cycle;Signal;HPM_P1;HPM_P2
2021/12/29 00:00:21;;;;;;;12.07;6.13;;;4.20;99.90;;;;;;5021981;28;20190;-66
2021/12/29 00:02:48;;;;;;;14.40;7.47;;;4.20;99.90;;;;;;5023888;28;20197;-68
2021/12/29 00:05:13;;;;;;;11.43;6.57;;;4.10;99.90;;;;;;5023473;28;20178;-68
2021/12/29 00:07:39;;;;;;;16.83;6.90;;;4.10;99.90;;;;;;5025554;28;20212;-67
2021/12/29 00:10:06;;;;;;;14.20;6.27;;;4.10;99.90;;;;;;5024656;28;20178;-68
2021/12/29 00:12:39;;;;;;;11.07;6.63;;;4.00;99.90;;;;;;5024501;28;20281;-68
2021/12/29 00:15:05;;;;;;;8.70;5.27;;;4.00;99.90;;;;;;5024962;28;20195;-67
2021/12/29 00:17:31;;;;;;;15.23;6.17;;;4.10;99.90;;;;;;5024196;28;20197;-67
2021/12/29 00:19:56;;;;;;;12.23;7.33;;;4.10;99.90;;;;;;5020418;28;20265;-67
2021/12/29 00:22:22;;;;;;;12.97;6.53;;;4.10;99.90;;;;;;5024594;28;20647;-66
2021/12/29 00:24:47;;;;;;;14.10;6.57;;;4.00;99.90;;;;;;5021630;28;20187;-66
2021/12/29 00:27:13;;;;;;;12.93;6.00;;;4.00;99.90;;;;;;5024665;28;20217;-66
2021/12/29 00:29:39;;;;;;;12.57;6.80;;;3.90;99.90;;;;;;5023608;28;20185;-68
2021/12/29 00:32:05;;;;;;;11.83;6.47;;;3.90;99.90;;;;;;5023477;28;20598;-66
2021/12/29 00:34:31;;;;;;;14.87;6.83;;;3.90;99.90;;;;;;5023350;28;20762;-67
2021/12/29 00:36:57;;;;;;;14.97;7.13;;;3.80;99.90;;;;;;5023563;28;20193;-67
2021/12/29 00:39:22;;;;;;;11.83;6.40;;;3.80;99.90;;;;;;5024462;28;20252;-66
2021/12/29 00:41:48;;;;;;;11.10;6.47;;;3.70;99.90;;;;;;5020909;28;20188;-70
2021/12/29 00:44:14;;;;;;;14.17;7.40;;;3.80;99.90;;;;;;5023224;28;20655;-66
2021/12/29 00:46:39;;;;;;;14.43;6.70;;;3.80;99.90;;;;;;5022711;28;20252;-69
2021/12/29 00:49:08;;;;;;;14.03;7.67;;;3.80;99.90;;;;;;5023169;28;20585;-66
2021/12/29 00:51:33;;;;;;;11.93;6.37;;;3.80;99.90;;;;;;5022936;28;20254;-68
2021/12/29 00:54:00;;;;;;;20.33;9.80;;;3.80;99.90;;;;;;5025349;28;20246;-66
2021/12/29 00:56:26;;;;;;;13.83;7.77;;;3.80;99.90;;;;;;5023944;28;20208;-66
2021/12/29 00:58:51;;;;;;;15.43;7.87;;;3.80;99.90;;;;;;5022925;28;20178;-65
2021/12/29 01:01:17;;;;;;;14.80;7.13;;;3.90;99.90;;;;;;5021958;28;20186;-67
2021/12/29 01:03:43;;;;;;;11.47;6.70;;;4.00;99.90;;;;;;5022017;28;20273;-67
2021/12/29 01:06:09;;;;;;;11.03;5.83;;;4.00;99.90;;;;;;5021578;28;20192;-68
2021/12/29 01:08:35;;;;;;;12.93;6.10;;;4.00;99.90;;;;;;5017455;28;20187;-67
2021/12/29 01:11:01;;;;;;;15.40;6.50;;;3.90;99.90;;;;;;5019575;28;20238;-65
2021/12/29 01:13:30;;;;;;;13.53;6.30;;;4.00;99.90;;;;;;5021550;28;20214;-65
2021/12/29 01:16:09;;;;;;;11.17;7.03;;;4.00;99.90;;;;;;5018124;28;20671;-68
2021/12/29 01:18:39;;;;;;;12.40;5.83;;;4.00;99.90;;;;;;5019235;28;20211;-67
2021/12/29 01:21:05;;;;;;;20.10;7.07;;;4.00;99.90;;;;;;5019891;28;20289;-66
2021/12/29 01:23:31;;;;;;;10.53;6.37;;;4.00;99.90;;;;;;5016272;28;20185;-67
2021/12/29 01:25:57;;;;;;;10.03;5.87;;;4.10;99.90;;;;;;5022624;28;20191;-67
2021/12/29 01:28:22;;;;;;;11.30;6.07;;;4.00;99.90;;;;;;5026830;28;20560;-68
2021/12/29 01:30:48;;;;;;;10.67;5.97;;;4.00;99.90;;;;;;5021332;28;20238;-67
2021/12/29 01:33:14;;;;;;;11.97;6.10;;;4.00;99.90;;;;;;5022326;28;20363;-65
2021/12/29 01:35:40;;;;;;;11.70;5.90;;;4.10;99.90;;;;;;5024249;28;20273;-67
2021/12/29 01:38:08;;;;;;;13.03;5.73;;;4.00;99.90;;;;;;5022349;28;20643;-68
2021/12/29 01:40:36;;;;;;;12.43;6.37;;;4.10;99.90;;;;;;5036396;28;20192;-67
2021/12/29 01:43:07;;;;;;;12.43;5.90;;;4.10;99.90;;;;;;5021950;28;20256;-66
2021/12/29 01:45:33;;;;;;;9.90;5.87;;;4.10;99.90;;;;;;5021612;28;20243;-65
2021/12/29 01:48:03;;;;;;;14.20;6.03;;;4.20;99.90;;;;;;5022434;28;20593;-67
2021/12/29 01:50:32;;;;;;;12.33;6.40;;;4.10;99.90;;;;;;5023387;28;20204;-69
2021/12/29 01:53:03;;;;;;;10.73;5.47;;;4.10;99.90;;;;;;5022300;28;20715;-68
2021/12/29 01:55:30;;;;;;;12.70;6.27;;;4.10;99.90;;;;;;5027847;28;20196;-65
2021/12/29 01:57:57;;;;;;;12.27;5.77;;;4.10;99.90;;;;;;5020468;28;20770;-70
2021/12/29 02:00:25;;;;;;;17.03;7.13;;;4.20;99.90;;;;;;5019900;28;20233;-65
2021/12/29 02:02:52;;;;;;;14.70;6.10;;;4.10;99.90;;;;;;5018373;28;20196;-65
2021/12/29 02:05:17;;;;;;;11.10;4.90;;;4.10;99.90;;;;;;5017663;28;20185;-65
2021/12/29 02:07:44;;;;;;;13.97;5.90;;;4.20;99.90;;;;;;5017339;28;20201;-68
2021/12/29 02:10:11;;;;;;;9.30;5.50;;;4.20;99.90;;;;;;5018456;28;20200;-65
2021/12/29 02:12:38;;;;;;;13.60;6.17;;;4.20;99.90;;;;;;5019541;28;20668;-66
2021/12/29 02:15:07;;;;;;;14.20;6.57;;;4.20;99.90;;;;;;5021040;28;20310;-64
2021/12/29 02:17:33;;;;;;;10.23;5.80;;;4.30;99.90;;;;;;5015691;28;20196;-69
2021/12/29 02:20:01;;;;;;;12.90;6.47;;;4.30;99.90;;;;;;5015706;28;20185;-67
2021/12/29 02:22:43;;;;;;;14.00;5.97;;;4.30;99.90;;;;;;5020285;28;20186;-67
2021/12/29 02:27:50;;;;;;;11.93;6.23;;;4.40;99.90;;;;;;5022092;28;20185;-66
2021/12/29 02:30:24;;;;;;;10.47;5.57;;;4.30;99.90;;;;;;5016665;28;20196;-67
2021/12/29 02:32:54;;;;;;;10.60;6.50;;;4.20;99.90;;;;;;5021455;28;20247;-66
2021/12/29 02:35:20;;;;;;;11.00;6.00;;;4.20;99.90;;;;;;5019293;28;20587;-66
2021/12/29 02:37:46;;;;;;;13.40;6.90;;;4.30;99.90;;;;;;5019867;28;20194;-67
2021/12/29 02:40:13;;;;;;;11.87;6.70;;;4.30;99.90;;;;;;5018471;28;20188;-68
2021/12/29 02:42:41;;;;;;;13.67;5.80;;;4.40;99.90;;;;;;5019909;28;20273;-65
2021/12/29 02:45:11;;;;;;;12.73;6.83;;;4.20;99.90;;;;;;5034090;28;20188;-66
2021/12/29 02:47:37;;;;;;;10.57;6.50;;;4.30;99.90;;;;;;5018948;28;20208;-67
2021/12/29 02:50:03;;;;;;;9.37;5.50;;;4.40;99.90;;;;;;5018302;28;20198;-66
2021/12/29 02:52:29;;;;;;;15.27;6.43;;;4.40;99.90;;;;;;5018798;28;20208;-67
2021/12/29 02:54:55;;;;;;;11.13;6.80;;;4.40;99.90;;;;;;5022200;28;20195;-66
2021/12/29 02:57:21;;;;;;;13.70;6.87;;;4.40;99.90;;;;;;5021396;28;20540;-65
2021/12/29 02:59:46;;;;;;;13.13;5.63;;;4.50;99.90;;;;;;5018589;28;20560;-66
2021/12/29 03:02:12;;;;;;;11.40;6.40;;;4.30;99.90;;;;;;5019808;28;20200;-66
2021/12/29 03:04:38;;;;;;;10.67;6.20;;;4.30;99.90;;;;;;5017901;28;20270;-65
2021/12/29 03:07:04;;;;;;;9.57;6.27;;;4.30;99.90;;;;;;5017901;28;20649;-65
2021/12/29 03:09:29;;;;;;;12.43;6.43;;;4.30;99.90;;;;;;5019223;28;20185;-65
2021/12/29 03:11:55;;;;;;;12.70;6.30;;;4.30;99.90;;;;;;5021863;28;20215;-69
2021/12/29 03:14:22;;;;;;;8.93;6.50;;;4.30;99.90;;;;;;5020128;28;20227;-66
2021/12/29 03:16:49;;;;;;;11.33;6.73;;;4.40;99.90;;;;;;5022305;28;20190;-66
2021/12/29 03:19:14;;;;;;;12.83;6.83;;;4.40;99.90;;;;;;5022890;28;20214;-65
2021/12/29 03:25:02;;;;;;;11.63;6.27;;;4.40;99.90;;;;;;5022630;28;20187;-66
2021/12/29 03:27:28;;;;;;;9.13;6.07;;;4.40;99.90;;;;;;5021282;28;20184;-65
2021/12/29 03:29:54;;;;;;;10.67;6.27;;;4.30;99.90;;;;;;5021959;28;20228;-68
2021/12/29 03:32:35;;;;;;;15.70;6.97;;;4.30;99.90;;;;;;5021298;28;20320;-64
2021/12/29 03:35:01;;;;;;;10.97;6.33;;;4.40;99.90;;;;;;5020092;28;20181;-69
2021/12/29 03:37:26;;;;;;;13.13;7.27;;;4.40;99.90;;;;;;5022204;28;20232;-68
2021/12/29 03:39:52;;;;;;;13.73;6.87;;;4.30;99.90;;;;;;5019689;28;20283;-66
2021/12/29 03:42:17;;;;;;;13.20;7.30;;;4.20;99.90;;;;;;5022085;28;20673;-66
2021/12/29 03:44:43;;;;;;;11.50;7.03;;;4.30;99.90;;;;;;5021824;28;20205;-66
2021/12/29 03:47:09;;;;;;;13.00;6.93;;;4.40;99.90;;;;;;5022983;28;20194;-66
2021/12/29 03:49:34;;;;;;;14.03;7.03;;;4.20;99.90;;;;;;5024881;28;20295;-66
2021/12/29 03:52:00;;;;;;;10.13;6.30;;;4.10;99.90;;;;;;5024864;28;20252;-66
2021/12/29 03:54:26;;;;;;;14.03;7.77;;;4.20;99.90;;;;;;5022136;28;20221;-66
2021/12/29 03:56:51;;;;;;;15.23;7.03;;;4.20;99.90;;;;;;5019986;28;20204;-67
2021/12/29 03:59:17;;;;;;;11.90;7.37;;;4.30;99.90;;;;;;5023571;28;20200;-65
2021/12/29 04:01:43;;;;;;;12.40;7.20;;;4.20;99.90;;;;;;5023556;28;20273;-68
2021/12/29 04:04:08;;;;;;;12.97;6.90;;;4.10;99.90;;;;;;5024847;28;20266;-64
2021/12/29 04:06:34;;;;;;;14.40;6.67;;;4.10;99.90;;;;;;5024985;28;20367;-67
2021/12/29 04:09:00;;;;;;;14.00;7.60;;;4.10;99.90;;;;;;5023440;28;20215;-66
2021/12/29 04:11:25;;;;;;;12.00;6.53;;;4.20;99.90;;;;;;5022414;28;20231;-65
2021/12/29 04:13:51;;;;;;;13.87;6.80;;;4.20;99.90;;;;;;5026302;28;20197;-65
2021/12/29 04:16:18;;;;;;;13.50;7.03;;;4.20;99.90;;;;;;5031715;28;20193;-66
2021/12/29 04:19:14;;;;;;;10.97;6.27;;;4.10;99.90;;;;;;5028822;28;20632;-66
2021/12/29 04:21:41;;;;;;;13.50;7.13;;;4.10;99.90;;;;;;5021485;28;20183;-65
2021/12/29 04:24:08;;;;;;;12.43;7.70;;;4.10;99.90;;;;;;5018998;28;20195;-66
2021/12/29 04:26:37;;;;;;;11.07;6.63;;;4.10;99.90;;;;;;5015694;28;20203;-66
2021/12/29 04:29:04;;;;;;;13.97;7.53;;;4.10;99.90;;;;;;5020800;28;20194;-66
2021/12/29 04:31:29;;;;;;;13.77;6.83;;;4.10;99.90;;;;;;5021737;28;20194;-66
2021/12/29 04:33:55;;;;;;;12.67;7.23;;;4.10;99.90;;;;;;5024748;28;20249;-67
2021/12/29 04:36:26;;;;;;;12.30;7.40;;;4.20;99.90;;;;;;5023285;28;20265;-66
2021/12/29 04:38:54;;;;;;;15.73;7.33;;;4.20;99.90;;;;;;5020295;28;20837;-65
2021/12/29 04:41:21;;;;;;;13.97;6.13;;;4.20;99.90;;;;;;5020052;28;20205;-70
2021/12/29 04:43:47;;;;;;;11.90;7.20;;;4.10;99.90;;;;;;5023483;28;20279;-67
2021/12/29 04:46:16;;;;;;;10.40;6.60;;;4.20;99.90;;;;;;5018760;28;20270;-65
2021/12/29 04:48:49;;;;;;;15.37;5.90;;;4.10;99.90;;;;;;5023377;28;20186;-66
2021/12/29 04:51:22;;;;;;;10.87;6.40;;;4.10;99.90;;;;;;5021643;28;20182;-67
2021/12/29 04:53:48;;;;;;;11.10;6.40;;;4.20;99.90;;;;;;5022187;28;20211;-66
2021/12/29 04:56:15;;;;;;;10.83;6.33;;;4.20;99.90;;;;;;5021602;28;20205;-65
2021/12/29 04:58:41;;;;;;;12.67;6.93;;;4.20;99.90;;;;;;5020553;28;20618;-67
2021/12/29 05:01:07;;;;;;;11.70;6.43;;;4.20;99.90;;;;;;5019407;28;20195;-67
2021/12/29 05:03:36;;;;;;;10.17;5.83;;;4.10;99.90;;;;;;5021632;28;20277;-65
2021/12/29 05:08:31;;;;;;;12.10;6.30;;;4.20;99.90;;;;;;5021498;28;20205;-65
2021/12/29 05:11:05;;;;;;;14.57;7.17;;;4.10;99.90;;;;;;5018173;28;20293;-66
2021/12/29 05:13:34;;;;;;;10.87;6.83;;;4.10;99.90;;;;;;5021547;28;20228;-70
2021/12/29 05:16:00;;;;;;;10.20;6.37;;;4.10;99.90;;;;;;5036917;28;20692;-66
2021/12/29 05:18:29;;;;;;;11.47;7.10;;;4.10;99.90;;;;;;5036542;28;20205;-68
2021/12/29 05:20:55;;;;;;;11.60;6.83;;;4.10;99.90;;;;;;5040003;28;20222;-65
2021/12/29 05:23:21;;;;;;;11.53;6.67;;;4.20;99.90;;;;;;5030449;28;20190;-65
2021/12/29 05:25:47;;;;;;;12.17;5.83;;;4.10;99.90;;;;;;5021173;28;20190;-66
2021/12/29 05:28:13;;;;;;;10.63;6.40;;;4.10;99.90;;;;;;5020501;28;20258;-65
2021/12/29 05:30:39;;;;;;;9.87;6.33;;;4.10;99.90;;;;;;5020200;28;20236;-66
2021/12/29 05:33:06;;;;;;;11.87;6.73;;;4.10;99.90;;;;;;5018793;28;20248;-68
2021/12/29 05:35:32;;;;;;;8.07;5.57;;;4.20;99.90;;;;;;5020945;28;20195;-66
2021/12/29 05:37:59;;;;;;;10.40;6.30;;;4.20;99.90;;;;;;5019587;28;20264;-69
2021/12/29 05:40:27;;;;;;;14.57;7.43;;;4.20;99.90;;;;;;5020730;28;20188;-67
2021/12/29 05:42:54;;;;;;;10.40;6.00;;;4.10;99.90;;;;;;5020796;28;20191;-66
2021/12/29 05:45:20;;;;;;;11.53;6.40;;;4.10;99.90;;;;;;5019952;28;20199;-69
2021/12/29 05:47:46;;;;;;;13.37;6.67;;;4.20;99.90;;;;;;5018808;28;20195;-65
2021/12/29 05:50:18;;;;;;;12.30;6.93;;;4.20;99.90;;;;;;5019017;28;20191;-67
2021/12/29 05:52:44;;;;;;;10.13;5.80;;;4.10;99.90;;;;;;5020516;28;20875;-65
2021/12/29 05:55:10;;;;;;;11.27;6.90;;;4.10;99.90;;;;;;5017995;28;20181;-67
2021/12/29 05:57:36;;;;;;;12.93;5.60;;;4.10;99.90;;;;;;5019823;28;20215;-65
2021/12/29 06:00:05;;;;;;;8.57;5.70;;;4.10;99.90;;;;;;5023117;28;20195;-66
2021/12/29 06:02:30;;;;;;;10.33;5.67;;;4.20;99.90;;;;;;5019463;28;20200;-65
2021/12/29 06:04:56;;;;;;;9.17;6.10;;;4.20;99.90;;;;;;5020439;28;20188;-71
2021/12/29 06:07:22;;;;;;;13.60;7.23;;;4.10;99.90;;;;;;5015409;28;20638;-66
2021/12/29 06:09:47;;;;;;;10.80;6.20;;;4.10;99.90;;;;;;5014986;28;20201;-66
2021/12/29 06:12:13;;;;;;;12.67;6.43;;;4.20;99.90;;;;;;5018140;28;20213;-67
2021/12/29 06:14:38;;;;;;;11.40;6.57;;;4.20;99.90;;;;;;5017588;28;20393;-67
2021/12/29 06:17:05;;;;;;;12.40;6.57;;;4.20;99.90;;;;;;5019536;28;20536;-65
2021/12/29 06:19:33;;;;;;;9.97;6.20;;;4.10;99.90;;;;;;5017223;28;20201;-67
2021/12/29 06:21:59;;;;;;;13.20;7.07;;;4.20;99.90;;;;;;5018298;28;20181;-68
2021/12/29 06:24:25;;;;;;;10.10;5.97;;;4.30;99.90;;;;;;5020799;28;20188;-68
2021/12/29 06:26:51;;;;;;;13.93;7.20;;;4.20;99.90;;;;;;5015256;28;20206;-68
2021/12/29 06:29:16;;;;;;;14.30;6.97;;;4.20;99.90;;;;;;5016729;28;20185;-68
2021/12/29 06:31:44;;;;;;;14.17;8.10;;;4.20;99.90;;;;;;5013249;28;20214;-67
2021/12/29 06:34:11;;;;;;;18.03;8.30;;;4.20;99.90;;;;;;5017084;28;20391;-72
2021/12/29 06:36:36;;;;;;;17.70;10.47;;;4.20;99.90;;;;;;5019583;28;20184;-69
2021/12/29 06:39:03;;;;;;;14.70;9.70;;;4.20;99.90;;;;;;5019291;28;20207;-68
2021/12/29 06:41:29;;;;;;;15.10;10.00;;;4.20;99.90;;;;;;5016286;28;20552;-69
2021/12/29 06:43:54;;;;;;;18.67;10.40;;;4.20;99.90;;;;;;5018118;28;20185;-66
2021/12/29 06:46:20;;;;;;;17.77;10.77;;;4.20;99.90;;;;;;5028314;28;20190;-69
2021/12/29 06:48:46;;;;;;;17.27;9.10;;;4.20;99.90;;;;;;5029169;28;20185;-69
2021/12/29 06:51:11;;;;;;;18.37;9.60;;;4.20;99.90;;;;;;5034346;28;20178;-72
2021/12/29 06:53:37;;;;;;;14.13;9.40;;;4.30;99.90;;;;;;5030640;28;20278;-67
2021/12/29 06:56:05;;;;;;;15.07;9.03;;;4.30;99.90;;;;;;5030783;28;20186;-67
2021/12/29 06:58:32;;;;;;;14.00;8.47;;;4.30;99.90;;;;;;5028460;28;20248;-67
2021/12/29 07:00:57;;;;;;;15.10;8.87;;;4.40;99.90;;;;;;5026467;28;20673;-68
2021/12/29 07:03:23;;;;;;;13.03;8.10;;;4.40;99.90;;;;;;5030496;28;20230;-66
2021/12/29 07:05:49;;;;;;;14.07;8.57;;;4.40;99.90;;;;;;5028845;28;20182;-69
2021/12/29 07:08:14;;;;;;;19.02;10.90;;;4.30;99.90;;;;;;5021900;28;20429;-65
2021/12/29 07:10:42;;;;;;;14.57;9.23;;;4.40;99.90;;;;;;5023813;28;20184;-65
2021/12/29 07:13:08;;;;;;;12.33;7.93;;;4.40;99.90;;;;;;5024157;28;20561;-70
2021/12/29 07:15:33;;;;;;;13.47;7.77;;;4.40;99.90;;;;;;5029013;28;20195;-65
2021/12/29 07:17:59;;;;;;;12.77;7.73;;;4.30;99.90;;;;;;5022779;28;20200;-65
2021/12/29 07:20:25;;;;;;;14.53;8.23;;;4.40;99.90;;;;;;5022646;28;20239;-65
2021/12/29 07:22:50;;;;;;;13.00;7.53;;;4.30;99.90;;;;;;5022940;28;20493;-65
2021/12/29 07:25:16;;;;;;;10.87;6.63;;;4.40;99.90;;;;;;5024460;28;20186;-66
2021/12/29 07:27:42;;;;;;;16.63;7.57;;;4.40;99.90;;;;;;5020401;28;20645;-66
2021/12/29 07:30:08;;;;;;;10.80;6.87;;;4.40;99.90;;;;;;5021484;28;20191;-69
2021/12/29 07:32:33;;;;;;;10.30;6.90;;;4.40;99.90;;;;;;5019606;28;20715;-70
2021/12/29 07:34:59;;;;;;;13.47;6.67;;;4.40;99.90;;;;;;5024728;28;20227;-65
2021/12/29 07:37:25;;;;;;;12.77;6.67;;;4.40;99.90;;;;;;5020456;28;20187;-67
2021/12/29 07:39:50;;;;;;;14.73;7.70;;;4.40;99.90;;;;;;5023316;28;20187;-67
2021/12/29 07:42:16;;;;;;;11.37;6.60;;;4.40;99.90;;;;;;5019271;28;20244;-69
2021/12/29 07:44:45;;;;;;;15.37;7.30;;;4.40;99.90;;;;;;5022201;28;20260;-67
2021/12/29 07:47:12;;;;;;;9.40;5.93;;;4.80;99.90;;;;;;5023491;28;20194;-67
2021/12/29 07:49:38;;;;;;;15.00;7.80;;;4.60;99.90;;;;;;5018670;28;20584;-67
2021/12/29 07:52:04;;;;;;;13.03;7.27;;;4.60;99.90;;;;;;5016802;28;20214;-66
2021/12/29 07:54:30;;;;;;;12.00;7.37;;;4.50;99.90;;;;;;5016782;28;20275;-70
2021/12/29 07:56:55;;;;;;;13.77;7.63;;;4.50;99.90;;;;;;5017786;28;20295;-66
2021/12/29 07:59:21;;;;;;;15.47;7.30;;;4.50;99.90;;;;;;5019026;28;20194;-66
2021/12/29 08:01:48;;;;;;;15.17;8.43;;;4.50;99.90;;;;;;5020474;28;20563;-67
2021/12/29 08:04:15;;;;;;;11.67;6.97;;;4.50;99.90;;;;;;5019282;28;20197;-66
2021/12/29 08:06:42;;;;;;;14.03;7.60;;;4.50;99.90;;;;;;5018726;28;20255;-67
2021/12/29 08:09:09;;;;;;;13.87;6.80;;;4.60;99.90;;;;;;5018144;28;20190;-68
2021/12/29 08:11:36;;;;;;;12.37;6.90;;;4.70;99.90;;;;;;5035720;28;20322;-67
2021/12/29 08:14:02;;;;;;;15.77;6.87;;;4.50;99.90;;;;;;5022337;28;20195;-68
2021/12/29 08:16:28;;;;;;;12.60;7.07;;;4.60;99.90;;;;;;5024664;28;20522;-66
2021/12/29 08:18:53;;;;;;;12.90;6.83;;;4.60;99.90;;;;;;5022803;28;20196;-65
2021/12/29 08:21:19;;;;;;;12.63;8.03;;;4.60;99.90;;;;;;5018328;28;20182;-65
2021/12/29 08:23:45;;;;;;;11.73;7.23;;;4.70;99.90;;;;;;5015589;28;20278;-67
2021/12/29 08:26:10;;;;;;;13.33;6.80;;;4.70;99.90;;;;;;5014950;28;20185;-67
2021/12/29 08:28:36;;;;;;;12.87;6.83;;;4.60;99.90;;;;;;5018640;28;20188;-66
2021/12/29 08:31:03;;;;;;;15.13;7.03;;;4.70;99.90;;;;;;5019940;28;20197;-66
2021/12/29 08:33:29;;;;;;;11.27;7.13;;;4.70;99.90;;;;;;5022276;28;20325;-66
2021/12/29 08:35:54;;;;;;;13.43;6.73;;;4.80;99.90;;;;;;5020115;28;20275;-66
2021/12/29 08:38:20;;;;;;;13.73;6.73;;;4.90;99.90;;;;;;5018923;28;20533;-65
2021/12/29 08:40:46;;;;;;;18.57;9.67;;;4.80;99.90;;;;;;5020906;28;20615;-66
2021/12/29 08:43:13;;;;;;;17.20;7.97;;;4.90;99.90;;;;;;5020106;28;20532;-65
2021/12/29 08:45:42;;;;;;;13.57;6.37;;;4.90;99.90;;;;;;5019385;28;20678;-70
2021/12/29 08:48:08;;;;;;;11.93;7.10;;;4.90;99.90;;;;;;5021720;28;20175;-69
2021/12/29 08:50:34;;;;;;;10.00;6.30;;;4.90;99.90;;;;;;5018952;28;20191;-67
2021/12/29 08:53:03;;;;;;;11.80;6.97;;;4.80;99.90;;;;;;5020637;28;20222;-68
2021/12/29 08:55:33;;;;;;;11.93;6.30;;;5.00;99.90;;;;;;5017777;28;20301;-66
2021/12/29 08:57:59;;;;;;;11.77;6.60;;;5.10;99.90;;;;;;5018964;28;20636;-74
2021/12/29 09:00:25;;;;;;;13.10;6.37;;;5.80;99.90;;;;;;5018940;28;20197;-75
2021/12/29 09:02:51;;;;;;;11.37;6.90;;;6.20;99.90;;;;;;5019202;28;20247;-70
2021/12/29 09:05:18;;;;;;;10.23;7.00;;;6.20;99.90;;;;;;5017044;28;20694;-69
2021/12/29 09:07:46;;;;;;;9.63;6.17;;;5.60;99.90;;;;;;5012008;28;20210;-68
2021/12/29 09:10:13;;;;;;;11.30;6.77;;;5.50;99.90;;;;;;5016906;28;20197;-66
2021/12/29 09:12:39;;;;;;;11.90;6.67;;;5.30;99.90;;;;;;5016756;28;20212;-65
2021/12/29 09:15:06;;;;;;;13.83;7.30;;;5.30;99.90;;;;;;5017505;28;20196;-66
2021/12/29 09:17:32;;;;;;;13.93;6.67;;;5.30;99.90;;;;;;5018158;28;20184;-64
2021/12/29 09:20:00;;;;;;;13.43;6.97;;;5.40;99.90;;;;;;5021030;28;20209;-68
2021/12/29 09:22:26;;;;;;;15.13;7.73;;;5.30;99.90;;;;;;5022420;28;20189;-65
2021/12/29 09:24:51;;;;;;;11.67;6.43;;;5.40;99.90;;;;;;5022854;28;20546;-69
2021/12/29 09:27:18;;;;;;;10.50;6.40;;;5.30;99.90;;;;;;5023131;28;20195;-65
2021/12/29 09:29:44;;;;;;;10.47;6.80;;;5.30;99.90;;;;;;5028318;28;20263;-68
2021/12/29 09:32:10;;;;;;;11.20;6.50;;;5.30;99.90;;;;;;5028996;28;20201;-65
2021/12/29 09:34:36;;;;;;;14.07;8.10;;;5.30;99.90;;;;;;5031665;28;21157;-66
2021/12/29 09:37:04;;;;;;;10.83;6.13;;;5.30;99.90;;;;;;5021826;28;20181;-65
2021/12/29 09:39:29;;;;;;;21.93;7.40;;;5.30;99.90;;;;;;5021718;28;20181;-65
2021/12/29 09:41:55;;;;;;;13.60;6.97;;;5.40;99.90;;;;;;5024187;28;20594;-67
2021/12/29 09:44:21;;;;;;;13.30;7.77;;;5.30;99.90;;;;;;5022812;28;20183;-66
2021/12/29 09:46:48;;;;;;;16.53;7.83;;;5.40;99.90;;;;;;5025678;28;20275;-70
2021/12/29 09:49:15;;;;;;;15.50;7.80;;;5.30;99.90;;;;;;5024028;28;20193;-66
2021/12/29 09:51:41;;;;;;;14.53;8.20;;;5.50;99.90;;;;;;5024618;28;20191;-66
2021/12/29 09:54:06;;;;;;;12.87;7.60;;;5.50;99.90;;;;;;5027853;28;20208;-67
2021/12/29 09:56:32;;;;;;;14.67;8.23;;;5.50;99.90;;;;;;5028303;28;20711;-65
2021/12/29 09:58:59;;;;;;;13.90;7.90;;;5.40;99.90;;;;;;5030522;28;20231;-65
2021/12/29 10:01:25;;;;;;;13.57;8.57;;;5.40;99.90;;;;;;5027218;28;20191;-68
2021/12/29 10:03:51;;;;;;;15.83;8.13;;;5.40;99.90;;;;;;5023150;28;20232;-65
2021/12/29 10:06:17;;;;;;;13.40;7.33;;;5.50;99.90;;;;;;5021638;28;20659;-65
2021/12/29 10:08:47;;;;;;;13.60;7.80;;;5.40;99.90;;;;;;5024481;28;20231;-66
2021/12/29 10:11:25;;;;;;;17.47;9.30;;;5.40;99.90;;;;;;5021589;28;20185;-66
2021/12/29 10:13:53;;;;;;;14.50;8.70;;;5.40;99.90;;;;;;5020348;28;20226;-64
2021/12/29 10:16:24;;;;;;;13.63;7.53;;;5.40;99.90;;;;;;5022092;28;20647;-66
2021/12/29 10:18:54;;;;;;;11.63;7.17;;;5.50;99.90;;;;;;5022081;28;20179;-64
2021/12/29 10:21:22;;;;;;;15.30;8.07;;;5.30;99.90;;;;;;5020418;28;20249;-63
2021/12/29 10:23:51;;;;;;;11.23;6.93;;;5.30;99.90;;;;;;5012826;28;20946;-64
2021/12/29 10:26:19;;;;;;;12.47;7.33;;;5.40;99.90;;;;;;5018652;28;20203;-65
2021/12/29 10:28:48;;;;;;;10.17;6.53;;;5.40;99.90;;;;;;5014750;28;20777;-64
2021/12/29 10:31:27;;;;;;;16.20;8.13;;;5.30;99.90;;;;;;5027866;28;20238;-65
2021/12/29 10:33:58;;;;;;;13.60;7.93;;;5.30;99.90;;;;;;5018435;28;20734;-63
2021/12/29 10:36:31;;;;;;;14.93;7.87;;;5.30;99.90;;;;;;5012032;28;20203;-62
2021/12/29 10:39:05;;;;;;;15.00;7.70;;;5.30;99.90;;;;;;5018068;28;20608;-67
2021/12/29 10:41:42;;;;;;;12.67;7.60;;;5.30;99.90;;;;;;5013475;28;20197;-63
2021/12/29 10:44:07;;;;;;;16.60;8.30;;;5.20;99.90;;;;;;5012768;28;20218;-63
2021/12/29 10:46:33;;;;;;;14.97;8.37;;;5.30;99.90;;;;;;5014193;28;20275;-65
2021/12/29 10:49:02;;;;;;;13.50;8.80;;;5.30;99.90;;;;;;5023140;28;20192;-69
2021/12/29 10:51:37;;;;;;;13.13;7.50;;;5.20;99.90;;;;;;5034808;28;20176;-64
2021/12/29 10:54:29;;;;;;;14.20;7.97;;;5.20;99.90;;;;;;5033673;28;20235;-65
2021/12/29 10:57:05;;;;;;;13.70;7.47;;;5.30;99.90;;;;;;5023952;28;20243;-64
2021/12/29 10:59:35;;;;;;;15.93;8.60;;;5.30;99.90;;;;;;5020694;28;20211;-65
2021/12/29 11:02:02;;;;;;;12.83;8.13;;;5.30;99.90;;;;;;5017889;28;20691;-67
2021/12/29 11:04:28;;;;;;;16.10;8.43;;;5.30;99.90;;;;;;5018310;28;20193;-64
2021/12/29 11:06:57;;;;;;;16.47;7.43;;;5.30;99.90;;;;;;5015614;28;20190;-64
2021/12/29 11:09:28;;;;;;;19.57;8.40;;;5.40;99.90;;;;;;5017657;28;20205;-65
2021/12/29 11:11:54;;;;;;;14.87;8.93;;;5.40;99.90;;;;;;5016586;28;20189;-64
2021/12/29 11:14:27;;;;;;;16.53;8.97;;;5.40;99.90;;;;;;5015273;28;20701;-63
2021/12/29 11:17:06;;;;;;;15.00;7.97;;;5.30;99.90;;;;;;5020316;28;20181;-66
2021/12/29 11:19:32;;;;;;;12.37;8.03;;;5.40;99.90;;;;;;5021437;28;20233;-65
2021/12/29 11:22:05;;;;;;;14.30;8.37;;;5.40;99.90;;;;;;5014516;28;20186;-66
2021/12/29 11:24:31;;;;;;;14.40;9.50;;;5.50;99.90;;;;;;5014915;28;20197;-63
2021/12/29 11:26:59;;;;;;;13.53;7.83;;;5.50;99.90;;;;;;5019947;28;20286;-65
2021/12/29 11:29:25;;;;;;;16.33;8.77;;;5.40;99.90;;;;;;5020462;28;20198;-66
2021/12/29 11:31:58;;;;;;;14.87;7.57;;;5.40;99.90;;;;;;5016243;28;20189;-65
2021/12/29 11:34:27;;;;;;;17.77;9.30;;;5.40;99.90;;;;;;5026015;28;20293;-64
2021/12/29 11:37:06;;;;;;;15.50;8.03;;;5.30;99.90;;;;;;5021620;28;20291;-64
2021/12/29 11:39:35;;;;;;;17.97;9.00;;;5.40;99.90;;;;;;5021177;28;20234;-67
2021/12/29 11:42:01;;;;;;;18.87;9.50;;;5.50;99.90;;;;;;5021917;28;20247;-66
2021/12/29 11:44:27;;;;;;;18.53;9.07;;;5.50;99.90;;;;;;5021805;28;20183;-63
2021/12/29 11:46:53;;;;;;;17.30;9.40;;;5.50;99.90;;;;;;5033711;28;20191;-68
2021/12/29 11:49:19;;;;;;;22.70;9.50;;;5.60;99.90;;;;;;5020137;28;20187;-68
2021/12/29 11:51:57;;;;;;;14.57;9.03;;;5.60;99.90;;;;;;5019470;28;20189;-66
2021/12/29 11:54:36;;;;;;;15.93;9.30;;;5.50;99.90;;;;;;5024596;28;20187;-65
2021/12/29 11:57:18;;;;;;;16.00;8.40;;;5.50;99.90;;;;;;5022921;28;20191;-63
2021/12/29 11:59:44;;;;;;;18.67;8.20;;;5.50;99.90;;;;;;5036794;28;20626;-65
2021/12/29 12:02:10;;;;;;;17.57;9.60;;;5.50;99.90;;;;;;5023428;28;20196;-65
2021/12/29 12:04:36;;;;;;;15.33;8.00;;;5.60;99.90;;;;;;5024216;28;20186;-63
2021/12/29 12:07:11;;;;;;;20.03;9.50;;;5.50;99.90;;;;;;5023077;28;20234;-64
2021/12/29 12:09:48;;;;;;;19.87;9.37;;;5.50;99.90;;;;;;5019571;28;20199;-64
2021/12/29 12:12:15;;;;;;;18.13;9.87;;;5.50;99.90;;;;;;5038589;28;20212;-63
2021/12/29 12:14:47;;;;;;;16.83;9.73;;;5.70;99.90;;;;;;5018184;28;20206;-65
2021/12/29 12:17:16;;;;;;;20.90;10.47;;;5.70;99.90;;;;;;5020474;28;20188;-67
2021/12/29 12:19:42;;;;;;;18.00;9.80;;;5.70;99.90;;;;;;5022570;28;20177;-64
2021/12/29 12:22:17;;;;;;;22.13;11.03;;;5.60;99.90;;;;;;5020839;28;20260;-67
2021/12/29 12:24:58;;;;;;;19.47;10.07;;;5.60;99.90;;;;;;5016900;28;20219;-65
2021/12/29 12:27:33;;;;;;;25.40;13.07;;;5.60;99.90;;;;;;5022263;28;20203;-67
2021/12/29 12:30:07;;;;;;;20.83;11.53;;;5.50;99.90;;;;;;5024125;28;20192;-65
2021/12/29 12:32:45;;;;;;;20.63;11.33;;;5.60;99.90;;;;;;5022444;28;20259;-63
2021/12/29 12:35:12;;;;;;;17.27;9.90;;;5.50;99.90;;;;;;5026447;28;20209;-63
2021/12/29 12:37:45;;;;;;;17.87;9.73;;;5.50;99.90;;;;;;5027715;28;20234;-64
2021/12/29 12:40:28;;;;;;;18.10;10.33;;;5.50;99.90;;;;;;5022133;28;20223;-64
2021/12/29 12:43:07;;;;;;;21.23;10.40;;;5.60;99.90;;;;;;5016070;28;20208;-64
2021/12/29 12:45:35;;;;;;;20.77;10.37;;;5.60;99.90;;;;;;5020011;28;20174;-64
2021/12/29 12:48:05;;;;;;;23.87;10.43;;;5.60;99.90;;;;;;5018591;28;20197;-64
2021/12/29 12:50:30;;;;;;;20.63;10.43;;;5.60;99.90;;;;;;5021202;28;20328;-63
2021/12/29 12:52:56;;;;;;;18.83;10.23;;;5.60;99.90;;;;;;5017906;28;20256;-64
2021/12/29 12:55:24;;;;;;;21.70;10.07;;;5.60;99.90;;;;;;5019733;28;20735;-64